Aeroporto :
LOGIN :

Iscrizione | Disclaimer

   EN    FR    IT 

 










Sommario :    VFR   VFR Marginale   IFR   IFR Intensivo   IFR Molto Intensivo
Visibilità : 
Base nubi : 
>= 8 km
>= 3000ft
5 / 8 km
1000 / 3000 ft
1500m / 5 km
500 / 1000 ft
800 / 1500m
200 / 500 ft
< 800m
< 200 ft
Simboli :   Temporali  Nebbia  Neve Forte  Precipitazioni Forti  Vento > 20 kt
SIGMETs :   Varie  Temporali  Ghiacco  Turbolenza  Onda orograficha  Ceneri Vulcaniche







- Altitudine del aeroporto : 295 ft
- Codice IATA : BWE


EDVE - Braunschweig

ULTIMO METAR :
  • 230920Z VRB04KT CAVOK 24/14 Q1017

METARs OBSOLETI :
  • 230850Z 32004KT 260V020 9999 FEW048 23/15 Q1017
  • 230820Z 32005KT 260V010 9999 22/15 Q1017
  • 230750Z 35004KT 290V030 CAVOK 21/14 Q1017
  • 230720Z 33004KT 280V010 CAVOK 20/15 Q1017
  • 230650Z 35003KT CAVOK 19/15 Q1017

TAF TAF EDVE
Valido dal 23 a 09 ore il 23 a 18 ore UTC


230800Z 2309/2318 28005KT CAVOK
BECMG 2314/2315 34005KT
Nessun NOTAM noto per questo aeroporto.



MetMap, La meteo Aeronautica in un colpo d'occhio ! - Copyright ORBIFLY Dicembre 2007 - Disclaimer

ORBIFLY MET'MAP TEAM :

Programmazione e sviluppo : Alexandra Zaïnal
Concezione e sviluppo : Baudouin d'Aumeries
Co-Programmazione e sviluppo : Marc-Olivier Méhu
Supporto tecnico e logistico : Manuel Goepfert
Aiuto per la traduzione : Arnaldo La Scala

Contatto : metmap@orbifly.com




FONTI E CREDITI :

   NOAA